sensor_id;sensor_type;location;lat;lon;timestamp;temperature;humidity
29237;DHT22;16266;50.866;4.398;2023-01-29T00:00:37;1.00;99.90
29237;DHT22;16266;50.866;4.398;2023-01-29T00:03:03;0.90;99.90
29237;DHT22;16266;50.866;4.398;2023-01-29T00:05:30;0.90;99.90
29237;DHT22;16266;50.866;4.398;2023-01-29T00:07:56;0.80;99.90
29237;DHT22;16266;50.866;4.398;2023-01-29T00:10:25;0.80;99.90
29237;DHT22;16266;50.866;4.398;2023-01-29T00:12:51;0.80;99.90
29237;DHT22;16266;50.866;4.398;2023-01-29T00:15:17;0.80;99.90
29237;DHT22;16266;50.866;4.398;2023-01-29T00:17:43;0.80;99.90
29237;DHT22;16266;50.866;4.398;2023-01-29T00:20:09;0.80;99.90
29237;DHT22;16266;50.866;4.398;2023-01-29T00:22:35;0.90;99.90
29237;DHT22;16266;50.866;4.398;2023-01-29T00:25:01;1.00;99.90
29237;DHT22;16266;50.866;4.398;2023-01-29T00:27:27;1.00;99.90
29237;DHT22;16266;50.866;4.398;2023-01-29T00:29:52;1.00;99.90
29237;DHT22;16266;50.866;4.398;2023-01-29T00:32:36;1.00;99.90
29237;DHT22;16266;50.866;4.398;2023-01-29T00:35:02;1.00;99.90
29237;DHT22;16266;50.866;4.398;2023-01-29T00:37:28;0.90;99.90
29237;DHT22;16266;50.866;4.398;2023-01-29T00:39:54;0.90;99.90
29237;DHT22;16266;50.866;4.398;2023-01-29T00:42:20;0.90;99.90
29237;DHT22;16266;50.866;4.398;2023-01-29T00:45:04;1.00;99.90
29237;DHT22;16266;50.866;4.398;2023-01-29T00:47:30;0.90;99.90
29237;DHT22;16266;50.866;4.398;2023-01-29T00:49:59;0.80;99.90
29237;DHT22;16266;50.866;4.398;2023-01-29T00:52:25;0.80;99.90
29237;DHT22;16266;50.866;4.398;2023-01-29T00:54:58;0.90;99.90
29237;DHT22;16266;50.866;4.398;2023-01-29T00:57:26;0.90;99.90
29237;DHT22;16266;50.866;4.398;2023-01-29T00:59:52;0.90;99.90
29237;DHT22;16266;50.866;4.398;2023-01-29T01:02:18;0.90;99.90
29237;DHT22;16266;50.866;4.398;2023-01-29T01:05:03;1.00;99.90
29237;DHT22;16266;50.866;4.398;2023-01-29T01:07:32;0.90;99.90
29237;DHT22;16266;50.866;4.398;2023-01-29T01:09:58;0.90;99.90
29237;DHT22;16266;50.866;4.398;2023-01-29T01:12:42;0.90;99.90
29237;DHT22;16266;50.866;4.398;2023-01-29T01:15:08;0.90;99.90
29237;DHT22;16266;50.866;4.398;2023-01-29T01:17:34;0.90;99.90
29237;DHT22;16266;50.866;4.398;2023-01-29T01:20:00;0.90;99.90
29237;DHT22;16266;50.866;4.398;2023-01-29T01:22:26;0.90;99.90
29237;DHT22;16266;50.866;4.398;2023-01-29T01:24:58;0.80;99.90
29237;DHT22;16266;50.866;4.398;2023-01-29T01:27:26;0.80;99.90
29237;DHT22;16266;50.866;4.398;2023-01-29T01:29:52;0.70;99.90
29237;DHT22;16266;50.866;4.398;2023-01-29T01:32:17;0.80;99.90
29237;DHT22;16266;50.866;4.398;2023-01-29T01:34:43;0.90;99.90
29237;DHT22;16266;50.866;4.398;2023-01-29T01:37:11;1.00;99.90
29237;DHT22;16266;50.866;4.398;2023-01-29T01:39:37;1.00;99.90
29237;DHT22;16266;50.866;4.398;2023-01-29T01:42:04;1.00;99.90
29237;DHT22;16266;50.866;4.398;2023-01-29T01:44:56;0.90;99.90
29237;DHT22;16266;50.866;4.398;2023-01-29T01:47:45;0.80;99.90
29237;DHT22;16266;50.866;4.398;2023-01-29T01:50:13;0.80;99.90
29237;DHT22;16266;50.866;4.398;2023-01-29T01:52:44;0.70;99.90
29237;DHT22;16266;50.866;4.398;2023-01-29T01:55:12;0.70;99.90
29237;DHT22;16266;50.866;4.398;2023-01-29T01:57:41;0.70;99.90
29237;DHT22;16266;50.866;4.398;2023-01-29T02:00:11;0.60;99.90
29237;DHT22;16266;50.866;4.398;2023-01-29T02:02:39;0.70;99.90
29237;DHT22;16266;50.866;4.398;2023-01-29T02:05:24;0.60;99.90
29237;DHT22;16266;50.866;4.398;2023-01-29T02:08:09;0.60;99.90
29237;DHT22;16266;50.866;4.398;2023-01-29T02:10:54;0.50;99.90
29237;DHT22;16266;50.866;4.398;2023-01-29T02:13:20;0.50;99.90
29237;DHT22;16266;50.866;4.398;2023-01-29T02:15:47;0.40;99.90
29237;DHT22;16266;50.866;4.398;2023-01-29T02:18:19;0.40;99.90
29237;DHT22;16266;50.866;4.398;2023-01-29T02:37:04;0.30;99.90
29237;DHT22;16266;50.866;4.398;2023-01-29T02:39:52;0.30;99.90
29237;DHT22;16266;50.866;4.398;2023-01-29T02:42:43;0.30;99.90
29237;DHT22;16266;50.866;4.398;2023-01-29T02:45:15;0.30;99.90
29237;DHT22;16266;50.866;4.398;2023-01-29T02:50:32;0.10;99.90
29237;DHT22;16266;50.866;4.398;2023-01-29T02:53:14;0.20;99.90
29237;DHT22;16266;50.866;4.398;2023-01-29T02:55:45;0.20;99.90
29237;DHT22;16266;50.866;4.398;2023-01-29T02:58:23;0.20;99.90
29237;DHT22;16266;50.866;4.398;2023-01-29T03:00:51;0.20;99.90
29237;DHT22;16266;50.866;4.398;2023-01-29T03:03:30;0.30;99.90
29237;DHT22;16266;50.866;4.398;2023-01-29T03:06:17;0.20;99.90
29237;DHT22;16266;50.866;4.398;2023-01-29T03:09:08;0.20;99.90
29237;DHT22;16266;50.866;4.398;2023-01-29T03:11:40;0.20;99.90
29237;DHT22;16266;50.866;4.398;2023-01-29T03:14:38;0.20;99.90
29237;DHT22;16266;50.866;4.398;2023-01-29T03:17:29;0.20;99.90
29237;DHT22;16266;50.866;4.398;2023-01-29T03:19:57;0.20;99.90
29237;DHT22;16266;50.866;4.398;2023-01-29T03:22:23;0.20;99.90
29237;DHT22;16266;50.866;4.398;2023-01-29T03:25:00;0.20;99.90
29237;DHT22;16266;50.866;4.398;2023-01-29T03:27:52;0.10;99.90
29237;DHT22;16266;50.866;4.398;2023-01-29T03:30:49;0.20;99.90
29237;DHT22;16266;50.866;4.398;2023-01-29T03:33:42;0.20;99.90
29237;DHT22;16266;50.866;4.398;2023-01-29T03:36:20;0.10;99.90
29237;DHT22;16266;50.866;4.398;2023-01-29T03:38:47;0.10;99.90
29237;DHT22;16266;50.866;4.398;2023-01-29T03:46:59;0.20;99.90
29237;DHT22;16266;50.866;4.398;2023-01-29T04:00:55;0.10;99.90
29237;DHT22;16266;50.866;4.398;2023-01-29T04:03:33;0.10;99.90
29237;DHT22;16266;50.866;4.398;2023-01-29T04:09:02;0.10;99.90
29237;DHT22;16266;50.866;4.398;2023-01-29T04:11:32;0.20;99.90
29237;DHT22;16266;50.866;4.398;2023-01-29T04:14:06;0.30;99.90
29237;DHT22;16266;50.866;4.398;2023-01-29T04:16:39;0.30;99.90
29237;DHT22;16266;50.866;4.398;2023-01-29T04:19:07;0.40;99.90
29237;DHT22;16266;50.866;4.398;2023-01-29T04:21:34;0.50;99.90
29237;DHT22;16266;50.866;4.398;2023-01-29T04:24:03;0.40;99.90
29237;DHT22;16266;50.866;4.398;2023-01-29T04:35:41;0.50;99.90
29237;DHT22;16266;50.866;4.398;2023-01-29T04:37:49;0.40;99.90
29237;DHT22;16266;50.866;4.398;2023-01-29T04:40:30;0.50;99.90
29237;DHT22;16266;50.866;4.398;2023-01-29T04:43:07;0.40;99.90
29237;DHT22;16266;50.866;4.398;2023-01-29T04:46:14;0.50;99.90
29237;DHT22;16266;50.866;4.398;2023-01-29T04:51:41;0.70;99.90
29237;DHT22;16266;50.866;4.398;2023-01-29T04:57:05;0.80;99.90
29237;DHT22;16266;50.866;4.398;2023-01-29T04:59:38;0.90;99.90
29237;DHT22;16266;50.866;4.398;2023-01-29T05:02:07;1.00;99.90
29237;DHT22;16266;50.866;4.398;2023-01-29T05:04:34;1.10;99.90
29237;DHT22;16266;50.866;4.398;2023-01-29T05:07:05;1.10;99.90
29237;DHT22;16266;50.866;4.398;2023-01-29T05:09:33;1.20;99.90
29237;DHT22;16266;50.866;4.398;2023-01-29T05:12:01;1.30;99.90
29237;DHT22;16266;50.866;4.398;2023-01-29T05:14:29;1.40;99.90
29237;DHT22;16266;50.866;4.398;2023-01-29T05:16:58;1.60;99.90
29237;DHT22;16266;50.866;4.398;2023-01-29T05:19:25;1.70;99.90
29237;DHT22;16266;50.866;4.398;2023-01-29T05:21:51;1.60;99.90
29237;DHT22;16266;50.866;4.398;2023-01-29T05:24:22;1.70;99.90
29237;DHT22;16266;50.866;4.398;2023-01-29T05:26:49;1.60;99.90
29237;DHT22;16266;50.866;4.398;2023-01-29T05:29:34;1.80;99.90
29237;DHT22;16266;50.866;4.398;2023-01-29T05:32:00;1.80;99.90
29237;DHT22;16266;50.866;4.398;2023-01-29T05:34:26;1.90;99.90
29237;DHT22;16266;50.866;4.398;2023-01-29T05:36:52;2.00;99.90
29237;DHT22;16266;50.866;4.398;2023-01-29T05:39:18;2.00;99.90
29237;DHT22;16266;50.866;4.398;2023-01-29T05:41:43;2.10;99.90
29237;DHT22;16266;50.866;4.398;2023-01-29T05:44:10;2.10;99.90
29237;DHT22;16266;50.866;4.398;2023-01-29T05:46:36;2.20;99.90
29237;DHT22;16266;50.866;4.398;2023-01-29T05:49:03;2.20;99.90
29237;DHT22;16266;50.866;4.398;2023-01-29T05:51:28;2.30;99.90
29237;DHT22;16266;50.866;4.398;2023-01-29T05:53:54;2.30;99.90
29237;DHT22;16266;50.866;4.398;2023-01-29T05:56:20;2.20;99.90
29237;DHT22;16266;50.866;4.398;2023-01-29T05:58:45;2.30;99.90
29237;DHT22;16266;50.866;4.398;2023-01-29T06:01:13;2.30;99.90
29237;DHT22;16266;50.866;4.398;2023-01-29T06:03:39;2.30;99.90
29237;DHT22;16266;50.866;4.398;2023-01-29T06:06:05;2.40;99.90
29237;DHT22;16266;50.866;4.398;2023-01-29T06:08:31;2.50;99.90
29237;DHT22;16266;50.866;4.398;2023-01-29T06:10:56;2.60;99.90
29237;DHT22;16266;50.866;4.398;2023-01-29T06:13:22;2.50;99.90
29237;DHT22;16266;50.866;4.398;2023-01-29T06:15:48;2.60;99.90
29237;DHT22;16266;50.866;4.398;2023-01-29T06:18:13;2.60;99.90
29237;DHT22;16266;50.866;4.398;2023-01-29T06:20:39;2.60;99.90
29237;DHT22;16266;50.866;4.398;2023-01-29T06:23:05;2.70;99.90
29237;DHT22;16266;50.866;4.398;2023-01-29T06:25:30;2.70;99.90
29237;DHT22;16266;50.866;4.398;2023-01-29T06:27:56;2.70;99.90
29237;DHT22;16266;50.866;4.398;2023-01-29T06:30:22;2.80;99.90
29237;DHT22;16266;50.866;4.398;2023-01-29T06:32:47;2.70;99.90
29237;DHT22;16266;50.866;4.398;2023-01-29T06:35:13;2.70;99.90
29237;DHT22;16266;50.866;4.398;2023-01-29T06:37:39;2.80;99.90
29237;DHT22;16266;50.866;4.398;2023-01-29T06:40:05;2.80;99.90
29237;DHT22;16266;50.866;4.398;2023-01-29T06:42:31;2.70;99.90
29237;DHT22;16266;50.866;4.398;2023-01-29T06:44:56;2.80;99.90
29237;DHT22;16266;50.866;4.398;2023-01-29T06:47:23;2.80;99.90
29237;DHT22;16266;50.866;4.398;2023-01-29T06:49:49;2.90;99.90
29237;DHT22;16266;50.866;4.398;2023-01-29T06:52:16;2.90;99.90
29237;DHT22;16266;50.866;4.398;2023-01-29T06:54:42;3.00;99.90
29237;DHT22;16266;50.866;4.398;2023-01-29T06:57:07;3.00;99.90
29237;DHT22;16266;50.866;4.398;2023-01-29T06:59:33;3.10;99.90
29237;DHT22;16266;50.866;4.398;2023-01-29T07:01:58;3.20;99.90
29237;DHT22;16266;50.866;4.398;2023-01-29T07:04:27;3.30;99.90
29237;DHT22;16266;50.866;4.398;2023-01-29T07:06:55;3.30;99.90
29237;DHT22;16266;50.866;4.398;2023-01-29T07:09:20;3.30;99.90
29237;DHT22;16266;50.866;4.398;2023-01-29T07:11:46;3.40;99.90
29237;DHT22;16266;50.866;4.398;2023-01-29T07:14:12;3.50;99.90
29237;DHT22;16266;50.866;4.398;2023-01-29T07:16:37;3.50;99.90
29237;DHT22;16266;50.866;4.398;2023-01-29T07:19:03;3.50;99.90
29237;DHT22;16266;50.866;4.398;2023-01-29T07:21:29;3.50;99.90
29237;DHT22;16266;50.866;4.398;2023-01-29T07:23:54;3.60;99.90
29237;DHT22;16266;50.866;4.398;2023-01-29T07:26:20;3.60;99.90
29237;DHT22;16266;50.866;4.398;2023-01-29T07:28:45;3.60;99.90
29237;DHT22;16266;50.866;4.398;2023-01-29T07:31:12;3.60;99.90
29237;DHT22;16266;50.866;4.398;2023-01-29T07:33:38;3.60;99.90
29237;DHT22;16266;50.866;4.398;2023-01-29T07:36:08;3.60;99.90
29237;DHT22;16266;50.866;4.398;2023-01-29T07:38:34;3.70;99.90
29237;DHT22;16266;50.866;4.398;2023-01-29T07:40:59;3.60;99.90
29237;DHT22;16266;50.866;4.398;2023-01-29T07:43:25;3.60;99.90
29237;DHT22;16266;50.866;4.398;2023-01-29T07:45:51;3.70;99.90
29237;DHT22;16266;50.866;4.398;2023-01-29T07:48:17;3.80;99.90
29237;DHT22;16266;50.866;4.398;2023-01-29T07:50:43;3.80;99.90
29237;DHT22;16266;50.866;4.398;2023-01-29T07:53:15;3.90;99.90
29237;DHT22;16266;50.866;4.398;2023-01-29T07:55:43;3.90;99.90
29237;DHT22;16266;50.866;4.398;2023-01-29T07:58:09;3.90;99.90
29237;DHT22;16266;50.866;4.398;2023-01-29T08:00:35;4.00;99.90
29237;DHT22;16266;50.866;4.398;2023-01-29T08:03:06;4.00;99.90
29237;DHT22;16266;50.866;4.398;2023-01-29T08:05:32;4.00;99.90
29237;DHT22;16266;50.866;4.398;2023-01-29T08:07:58;4.10;99.90
29237;DHT22;16266;50.866;4.398;2023-01-29T08:10:24;4.20;99.90
29237;DHT22;16266;50.866;4.398;2023-01-29T08:12:55;4.20;99.90
29237;DHT22;16266;50.866;4.398;2023-01-29T08:15:20;4.30;99.90
29237;DHT22;16266;50.866;4.398;2023-01-29T08:17:46;4.40;99.90
29237;DHT22;16266;50.866;4.398;2023-01-29T08:20:12;4.40;99.90
29237;DHT22;16266;50.866;4.398;2023-01-29T08:22:37;4.40;99.90
29237;DHT22;16266;50.866;4.398;2023-01-29T08:25:03;4.50;99.90
29237;DHT22;16266;50.866;4.398;2023-01-29T08:27:29;4.50;99.90
29237;DHT22;16266;50.866;4.398;2023-01-29T08:29:55;4.60;99.90
29237;DHT22;16266;50.866;4.398;2023-01-29T08:32:20;4.50;99.90
29237;DHT22;16266;50.866;4.398;2023-01-29T08:34:46;4.50;99.90
29237;DHT22;16266;50.866;4.398;2023-01-29T08:37:12;4.80;99.90
29237;DHT22;16266;50.866;4.398;2023-01-29T08:39:37;4.70;99.90
29237;DHT22;16266;50.866;4.398;2023-01-29T08:42:03;4.80;99.90
29237;DHT22;16266;50.866;4.398;2023-01-29T08:44:28;4.80;99.90
29237;DHT22;16266;50.866;4.398;2023-01-29T08:46:54;5.00;99.90
29237;DHT22;16266;50.866;4.398;2023-01-29T08:49:20;5.10;99.90
29237;DHT22;16266;50.866;4.398;2023-01-29T08:51:45;5.10;99.90
29237;DHT22;16266;50.866;4.398;2023-01-29T08:54:11;5.00;99.90
29237;DHT22;16266;50.866;4.398;2023-01-29T08:56:37;5.10;99.90
29237;DHT22;16266;50.866;4.398;2023-01-29T08:59:02;5.10;99.90
29237;DHT22;16266;50.866;4.398;2023-01-29T09:01:28;5.10;99.90
29237;DHT22;16266;50.866;4.398;2023-01-29T09:03:53;5.00;99.90
29237;DHT22;16266;50.866;4.398;2023-01-29T09:06:19;5.10;99.90
29237;DHT22;16266;50.866;4.398;2023-01-29T09:08:45;5.10;99.90
29237;DHT22;16266;50.866;4.398;2023-01-29T09:11:10;5.20;99.90
29237;DHT22;16266;50.866;4.398;2023-01-29T09:13:36;5.30;99.90
29237;DHT22;16266;50.866;4.398;2023-01-29T09:16:03;5.30;99.90
29237;DHT22;16266;50.866;4.398;2023-01-29T09:18:29;5.50;99.90
29237;DHT22;16266;50.866;4.398;2023-01-29T09:20:56;5.40;99.90
29237;DHT22;16266;50.866;4.398;2023-01-29T09:23:22;5.40;99.90
29237;DHT22;16266;50.866;4.398;2023-01-29T09:25:48;5.60;99.90
29237;DHT22;16266;50.866;4.398;2023-01-29T09:28:13;5.70;99.90
29237;DHT22;16266;50.866;4.398;2023-01-29T09:30:39;5.70;99.90
29237;DHT22;16266;50.866;4.398;2023-01-29T09:33:06;5.60;99.90
29237;DHT22;16266;50.866;4.398;2023-01-29T09:35:32;5.60;99.90
29237;DHT22;16266;50.866;4.398;2023-01-29T09:37:58;5.50;99.90
29237;DHT22;16266;50.866;4.398;2023-01-29T09:43:15;5.60;99.90
29237;DHT22;16266;50.866;4.398;2023-01-29T09:46:00;5.60;99.90
29237;DHT22;16266;50.866;4.398;2023-01-29T09:48:31;5.70;99.90
29237;DHT22;16266;50.866;4.398;2023-01-29T09:51:02;5.70;99.90
29237;DHT22;16266;50.866;4.398;2023-01-29T09:53:29;5.70;99.90
29237;DHT22;16266;50.866;4.398;2023-01-29T09:56:13;5.70;99.90
29237;DHT22;16266;50.866;4.398;2023-01-29T09:58:42;5.70;99.90
29237;DHT22;16266;50.866;4.398;2023-01-29T10:20:51;5.60;99.90
29237;DHT22;16266;50.866;4.398;2023-01-29T10:23:26;5.70;99.90
29237;DHT22;16266;50.866;4.398;2023-01-29T10:25:54;5.80;99.90
29237;DHT22;16266;50.866;4.398;2023-01-29T10:31:01;5.90;99.90
29237;DHT22;16266;50.866;4.398;2023-01-29T10:33:32;6.10;99.90
29237;DHT22;16266;50.866;4.398;2023-01-29T10:36:03;6.20;99.90
29237;DHT22;16266;50.866;4.398;2023-01-29T10:38:49;6.20;99.90
29237;DHT22;16266;50.866;4.398;2023-01-29T10:41:29;6.30;99.90
29237;DHT22;16266;50.866;4.398;2023-01-29T10:58:04;5.80;99.90
29237;DHT22;16266;50.866;4.398;2023-01-29T11:00:41;5.90;99.90
29237;DHT22;16266;50.866;4.398;2023-01-29T11:03:25;5.90;99.90
29237;DHT22;16266;50.866;4.398;2023-01-29T11:06:16;6.00;99.90
29237;DHT22;16266;50.866;4.398;2023-01-29T11:11:53;6.10;99.90
29237;DHT22;16266;50.866;4.398;2023-01-29T11:14:26;6.00;99.90
29237;DHT22;16266;50.866;4.398;2023-01-29T11:16:53;6.00;99.90
29237;DHT22;16266;50.866;4.398;2023-01-29T11:19:42;6.10;99.90
29237;DHT22;16266;50.866;4.398;2023-01-29T11:22:16;6.10;99.90
29237;DHT22;16266;50.866;4.398;2023-01-29T11:24:43;6.30;99.90
29237;DHT22;16266;50.866;4.398;2023-01-29T11:29:47;6.40;99.90
29237;DHT22;16266;50.866;4.398;2023-01-29T11:32:24;6.50;99.90
29237;DHT22;16266;50.866;4.398;2023-01-29T11:37:46;6.40;99.90
29237;DHT22;16266;50.866;4.398;2023-01-29T11:40:32;6.40;99.90
29237;DHT22;16266;50.866;4.398;2023-01-29T11:43:18;6.50;99.90
29237;DHT22;16266;50.866;4.398;2023-01-29T11:45:44;6.40;99.90
29237;DHT22;16266;50.866;4.398;2023-01-29T11:48:15;6.40;99.90
29237;DHT22;16266;50.866;4.398;2023-01-29T11:50:42;6.40;99.90
29237;DHT22;16266;50.866;4.398;2023-01-29T11:53:39;6.50;99.90
29237;DHT22;16266;50.866;4.398;2023-01-29T11:59:04;6.70;99.90
29237;DHT22;16266;50.866;4.398;2023-01-29T12:01:36;6.90;99.90
29237;DHT22;16266;50.866;4.398;2023-01-29T12:04:13;6.80;99.90
29237;DHT22;16266;50.866;4.398;2023-01-29T12:06:43;6.80;99.90
29237;DHT22;16266;50.866;4.398;2023-01-29T12:09:13;6.70;99.90
29237;DHT22;16266;50.866;4.398;2023-01-29T12:11:40;6.70;99.90
29237;DHT22;16266;50.866;4.398;2023-01-29T12:14:27;6.90;99.90
29237;DHT22;16266;50.866;4.398;2023-01-29T12:17:23;7.00;99.90
29237;DHT22;16266;50.866;4.398;2023-01-29T12:19:57;7.20;99.90
29237;DHT22;16266;50.866;4.398;2023-01-29T12:27:37;7.60;99.90
29237;DHT22;16266;50.866;4.398;2023-01-29T12:30:39;7.70;99.90
29237;DHT22;16266;50.866;4.398;2023-01-29T12:33:50;7.60;99.90
29237;DHT22;16266;50.866;4.398;2023-01-29T12:36:18;7.60;99.90
29237;DHT22;16266;50.866;4.398;2023-01-29T12:38:46;7.80;99.90
29237;DHT22;16266;50.866;4.398;2023-01-29T12:44:03;7.80;99.90
29237;DHT22;16266;50.866;4.398;2023-01-29T12:46:37;7.80;99.90
29237;DHT22;16266;50.866;4.398;2023-01-29T12:49:17;7.80;99.90
29237;DHT22;16266;50.866;4.398;2023-01-29T12:52:06;7.70;99.90
29237;DHT22;16266;50.866;4.398;2023-01-29T12:54:56;7.60;99.90
29237;DHT22;16266;50.866;4.398;2023-01-29T13:04:01;8.00;99.90
29237;DHT22;16266;50.866;4.398;2023-01-29T13:06:35;8.00;99.90
29237;DHT22;16266;50.866;4.398;2023-01-29T13:09:11;7.70;99.90
29237;DHT22;16266;50.866;4.398;2023-01-29T13:14:23;7.30;99.90
29237;DHT22;16266;50.866;4.398;2023-01-29T13:17:00;7.20;99.90
29237;DHT22;16266;50.866;4.398;2023-01-29T13:19:42;7.10;99.90
29237;DHT22;16266;50.866;4.398;2023-01-29T13:22:38;7.20;99.90
29237;DHT22;16266;50.866;4.398;2023-01-29T13:25:05;7.30;99.90
29237;DHT22;16266;50.866;4.398;2023-01-29T13:27:38;7.40;99.90
29237;DHT22;16266;50.866;4.398;2023-01-29T13:30:04;7.50;99.90
29237;DHT22;16266;50.866;4.398;2023-01-29T13:32:32;7.50;99.90
29237;DHT22;16266;50.866;4.398;2023-01-29T13:35:03;7.50;99.90
29237;DHT22;16266;50.866;4.398;2023-01-29T13:37:35;7.50;99.90
29237;DHT22;16266;50.866;4.398;2023-01-29T13:40:04;7.70;99.90
29237;DHT22;16266;50.866;4.398;2023-01-29T13:42:44;7.80;99.90
29237;DHT22;16266;50.866;4.398;2023-01-29T13:45:23;7.80;99.90
29237;DHT22;16266;50.866;4.398;2023-01-29T13:47:51;7.80;99.90
29237;DHT22;16266;50.866;4.398;2023-01-29T13:50:34;7.90;99.90
29237;DHT22;16266;50.866;4.398;2023-01-29T13:53:03;7.90;99.90
29237;DHT22;16266;50.866;4.398;2023-01-29T13:55:32;7.80;99.90
29237;DHT22;16266;50.866;4.398;2023-01-29T13:58:01;7.70;99.90
29237;DHT22;16266;50.866;4.398;2023-01-29T14:05:44;7.30;99.90
29237;DHT22;16266;50.866;4.398;2023-01-29T14:08:43;7.30;99.90
29237;DHT22;16266;50.866;4.398;2023-01-29T14:13:49;7.10;99.90
29237;DHT22;16266;50.866;4.398;2023-01-29T14:18:46;6.90;99.90
29237;DHT22;16266;50.866;4.398;2023-01-29T14:23:52;7.00;99.90
29237;DHT22;16266;50.866;4.398;2023-01-29T14:26:20;7.10;99.90
29237;DHT22;16266;50.866;4.398;2023-01-29T14:29:16;6.90;99.90
29237;DHT22;16266;50.866;4.398;2023-01-29T14:34:25;6.90;99.90
29237;DHT22;16266;50.866;4.398;2023-01-29T14:37:01;6.90;99.90
29237;DHT22;16266;50.866;4.398;2023-01-29T14:39:36;6.80;99.90
29237;DHT22;16266;50.866;4.398;2023-01-29T14:42:13;6.80;99.90
29237;DHT22;16266;50.866;4.398;2023-01-29T14:47:19;6.80;99.90
29237;DHT22;16266;50.866;4.398;2023-01-29T14:49:51;6.80;99.90
29237;DHT22;16266;50.866;4.398;2023-01-29T14:52:24;6.70;99.90
29237;DHT22;16266;50.866;4.398;2023-01-29T14:54:52;6.80;99.90
29237;DHT22;16266;50.866;4.398;2023-01-29T14:57:19;6.60;99.90
29237;DHT22;16266;50.866;4.398;2023-01-29T14:59:56;6.70;99.90
29237;DHT22;16266;50.866;4.398;2023-01-29T15:02:30;6.60;99.90
29237;DHT22;16266;50.866;4.398;2023-01-29T15:05:03;6.60;99.90
29237;DHT22;16266;50.866;4.398;2023-01-29T15:10:39;6.40;99.90
29237;DHT22;16266;50.866;4.398;2023-01-29T15:13:08;6.40;99.90
29237;DHT22;16266;50.866;4.398;2023-01-29T15:15:54;6.30;99.90
29237;DHT22;16266;50.866;4.398;2023-01-29T15:18:36;6.10;99.90
29237;DHT22;16266;50.866;4.398;2023-01-29T15:21:10;6.10;99.90
29237;DHT22;16266;50.866;4.398;2023-01-29T15:23:37;6.00;99.90
29237;DHT22;16266;50.866;4.398;2023-01-29T15:26:07;6.00;99.90
29237;DHT22;16266;50.866;4.398;2023-01-29T15:28:34;6.00;99.90
29237;DHT22;16266;50.866;4.398;2023-01-29T15:31:02;6.00;99.90
29237;DHT22;16266;50.866;4.398;2023-01-29T15:33:30;6.10;99.90
29237;DHT22;16266;50.866;4.398;2023-01-29T15:35:58;6.00;99.90
29237;DHT22;16266;50.866;4.398;2023-01-29T15:38:25;6.00;99.90
29237;DHT22;16266;50.866;4.398;2023-01-29T15:41:02;5.90;99.90
29237;DHT22;16266;50.866;4.398;2023-01-29T15:43:30;6.00;99.90
29237;DHT22;16266;50.866;4.398;2023-01-29T15:46:24;6.00;99.90
29237;DHT22;16266;50.866;4.398;2023-01-29T15:48:50;5.90;99.90
29237;DHT22;16266;50.866;4.398;2023-01-29T15:51:20;5.80;99.90
29237;DHT22;16266;50.866;4.398;2023-01-29T15:53:56;5.80;99.90
29237;DHT22;16266;50.866;4.398;2023-01-29T15:56:32;5.80;99.90
29237;DHT22;16266;50.866;4.398;2023-01-29T15:59:00;5.80;99.90
29237;DHT22;16266;50.866;4.398;2023-01-29T16:01:27;5.70;99.90
29237;DHT22;16266;50.866;4.398;2023-01-29T16:03:54;5.70;99.90
29237;DHT22;16266;50.866;4.398;2023-01-29T16:06:21;5.70;99.90
29237;DHT22;16266;50.866;4.398;2023-01-29T16:08:50;5.70;99.90
29237;DHT22;16266;50.866;4.398;2023-01-29T16:11:18;5.60;99.90
29237;DHT22;16266;50.866;4.398;2023-01-29T16:13:46;5.50;99.90
29237;DHT22;16266;50.866;4.398;2023-01-29T16:16:25;5.50;99.90
29237;DHT22;16266;50.866;4.398;2023-01-29T16:18:51;5.40;99.90
29237;DHT22;16266;50.866;4.398;2023-01-29T16:21:25;5.30;99.90
29237;DHT22;16266;50.866;4.398;2023-01-29T16:23:58;5.30;99.90
29237;DHT22;16266;50.866;4.398;2023-01-29T16:26:27;5.30;99.90
29237;DHT22;16266;50.866;4.398;2023-01-29T16:28:53;5.30;99.90
29237;DHT22;16266;50.866;4.398;2023-01-29T16:31:26;5.20;99.90
29237;DHT22;16266;50.866;4.398;2023-01-29T16:33:53;5.20;99.90
29237;DHT22;16266;50.866;4.398;2023-01-29T16:36:23;5.10;99.90
29237;DHT22;16266;50.866;4.398;2023-01-29T16:39:00;5.10;99.90
29237;DHT22;16266;50.866;4.398;2023-01-29T16:41:28;5.00;99.90
29237;DHT22;16266;50.866;4.398;2023-01-29T16:46:49;5.20;99.90
29237;DHT22;16266;50.866;4.398;2023-01-29T16:51:56;5.10;99.90
29237;DHT22;16266;50.866;4.398;2023-01-29T16:54:41;5.10;99.90
29237;DHT22;16266;50.866;4.398;2023-01-29T16:57:14;5.10;99.90
29237;DHT22;16266;50.866;4.398;2023-01-29T16:59:41;5.10;99.90
29237;DHT22;16266;50.866;4.398;2023-01-29T17:02:26;5.10;99.90
29237;DHT22;16266;50.866;4.398;2023-01-29T17:04:55;5.10;99.90
29237;DHT22;16266;50.866;4.398;2023-01-29T17:07:21;5.00;99.90
29237;DHT22;16266;50.866;4.398;2023-01-29T17:09:50;5.00;99.90
29237;DHT22;16266;50.866;4.398;2023-01-29T17:12:21;5.00;99.90
29237;DHT22;16266;50.866;4.398;2023-01-29T17:14:58;5.10;99.90
29237;DHT22;16266;50.866;4.398;2023-01-29T17:17:29;5.10;99.90
29237;DHT22;16266;50.866;4.398;2023-01-29T17:19:56;5.00;99.90
29237;DHT22;16266;50.866;4.398;2023-01-29T17:22:22;5.00;99.90
29237;DHT22;16266;50.866;4.398;2023-01-29T17:24:47;4.90;99.90
29237;DHT22;16266;50.866;4.398;2023-01-29T17:27:20;4.80;99.90
29237;DHT22;16266;50.866;4.398;2023-01-29T17:29:46;4.90;99.90
29237;DHT22;16266;50.866;4.398;2023-01-29T17:32:13;4.80;99.90
29237;DHT22;16266;50.866;4.398;2023-01-29T17:34:39;4.80;99.90
29237;DHT22;16266;50.866;4.398;2023-01-29T17:37:04;4.70;99.90
29237;DHT22;16266;50.866;4.398;2023-01-29T17:39:31;4.70;99.90
29237;DHT22;16266;50.866;4.398;2023-01-29T17:41:57;4.70;99.90
29237;DHT22;16266;50.866;4.398;2023-01-29T17:44:24;4.70;99.90
29237;DHT22;16266;50.866;4.398;2023-01-29T17:46:52;4.70;99.90
29237;DHT22;16266;50.866;4.398;2023-01-29T17:49:24;4.80;99.90
29237;DHT22;16266;50.866;4.398;2023-01-29T17:51:51;4.80;99.90
29237;DHT22;16266;50.866;4.398;2023-01-29T17:54:17;4.90;99.90
29237;DHT22;16266;50.866;4.398;2023-01-29T17:56:42;5.00;99.90
29237;DHT22;16266;50.866;4.398;2023-01-29T17:59:13;5.00;99.90
29237;DHT22;16266;50.866;4.398;2023-01-29T18:01:39;5.00;99.90
29237;DHT22;16266;50.866;4.398;2023-01-29T18:04:05;5.00;99.90
29237;DHT22;16266;50.866;4.398;2023-01-29T18:06:31;5.00;99.90
29237;DHT22;16266;50.866;4.398;2023-01-29T18:08:56;5.00;99.90
29237;DHT22;16266;50.866;4.398;2023-01-29T18:11:23;4.90;99.90
29237;DHT22;16266;50.866;4.398;2023-01-29T18:13:49;4.90;99.90
29237;DHT22;16266;50.866;4.398;2023-01-29T18:16:21;4.80;99.90
29237;DHT22;16266;50.866;4.398;2023-01-29T18:18:48;4.70;99.90
29237;DHT22;16266;50.866;4.398;2023-01-29T18:21:13;4.60;99.90
29237;DHT22;16266;50.866;4.398;2023-01-29T18:23:39;4.60;99.90
29237;DHT22;16266;50.866;4.398;2023-01-29T18:26:05;4.60;99.90
29237;DHT22;16266;50.866;4.398;2023-01-29T18:28:32;4.70;99.90
29237;DHT22;16266;50.866;4.398;2023-01-29T18:31:02;4.60;99.90
29237;DHT22;16266;50.866;4.398;2023-01-29T18:33:28;4.50;99.90
29237;DHT22;16266;50.866;4.398;2023-01-29T18:35:53;4.50;99.90